sensor_id;sensor_type;location;lat;lon;timestamp;pressure;altitude;pressure_sealevel;temperature;humidity
8140;BME280;4111;50.972;7.072;2023-12-07T00:01:23;101519.69;;;2.49;100.00
8140;BME280;4111;50.972;7.072;2023-12-07T00:03:49;101526.22;;;2.47;100.00
8140;BME280;4111;50.972;7.072;2023-12-07T00:06:16;101524.19;;;2.49;100.00
8140;BME280;4111;50.972;7.072;2023-12-07T00:08:43;101527.78;;;2.41;100.00
8140;BME280;4111;50.972;7.072;2023-12-07T00:11:10;101529.13;;;2.37;100.00
8140;BME280;4111;50.972;7.072;2023-12-07T00:13:36;101526.47;;;2.37;100.00
8140;BME280;4111;50.972;7.072;2023-12-07T00:16:03;101524.75;;;2.36;100.00
8140;BME280;4111;50.972;7.072;2023-12-07T00:18:29;101520.59;;;2.33;100.00
8140;BME280;4111;50.972;7.072;2023-12-07T00:20:56;101516.91;;;2.34;100.00
8140;BME280;4111;50.972;7.072;2023-12-07T00:23:22;101518.41;;;2.29;100.00
8140;BME280;4111;50.972;7.072;2023-12-07T00:25:49;101521.78;;;2.23;100.00
8140;BME280;4111;50.972;7.072;2023-12-07T00:28:17;101521.50;;;2.17;100.00
8140;BME280;4111;50.972;7.072;2023-12-07T00:30:44;101514.13;;;2.20;100.00
8140;BME280;4111;50.972;7.072;2023-12-07T00:33:10;101513.28;;;2.11;100.00
8140;BME280;4111;50.972;7.072;2023-12-07T00:35:37;101523.16;;;2.10;100.00
8140;BME280;4111;50.972;7.072;2023-12-07T00:38:03;101523.50;;;2.15;100.00
8140;BME280;4111;50.972;7.072;2023-12-07T00:40:29;101515.78;;;2.21;100.00
8140;BME280;4111;50.972;7.072;2023-12-07T00:42:57;101518.44;;;2.21;100.00
8140;BME280;4111;50.972;7.072;2023-12-07T00:45:24;101517.78;;;2.18;100.00
8140;BME280;4111;50.972;7.072;2023-12-07T00:47:50;101509.22;;;2.23;100.00
8140;BME280;4111;50.972;7.072;2023-12-07T00:50:17;101518.16;;;2.15;100.00
8140;BME280;4111;50.972;7.072;2023-12-07T00:52:43;101520.81;;;2.15;100.00
8140;BME280;4111;50.972;7.072;2023-12-07T00:55:10;101516.66;;;2.05;100.00
8140;BME280;4111;50.972;7.072;2023-12-07T00:57:38;101519.50;;;2.03;100.00
8140;BME280;4111;50.972;7.072;2023-12-07T01:00:05;101520.81;;;2.07;100.00
8140;BME280;4111;50.972;7.072;2023-12-07T01:02:32;101528.72;;;2.01;100.00
8140;BME280;4111;50.972;7.072;2023-12-07T01:04:58;101540.94;;;1.95;100.00
8140;BME280;4111;50.972;7.072;2023-12-07T01:07:25;101541.97;;;1.94;100.00
8140;BME280;4111;50.972;7.072;2023-12-07T01:09:51;101540.28;;;1.93;100.00
8140;BME280;4111;50.972;7.072;2023-12-07T01:12:18;101542.28;;;1.99;100.00
8140;BME280;4111;50.972;7.072;2023-12-07T01:14:45;101535.94;;;1.84;100.00
8140;BME280;4111;50.972;7.072;2023-12-07T01:17:11;101529.25;;;1.88;100.00
8140;BME280;4111;50.972;7.072;2023-12-07T01:19:37;101533.91;;;2.02;100.00
8140;BME280;4111;50.972;7.072;2023-12-07T01:22:04;101538.94;;;1.89;100.00
8140;BME280;4111;50.972;7.072;2023-12-07T01:24:30;101535.94;;;1.84;100.00
8140;BME280;4111;50.972;7.072;2023-12-07T01:26:57;101537.63;;;1.85;100.00
8140;BME280;4111;50.972;7.072;2023-12-07T01:29:23;101531.56;;;1.91;100.00
8140;BME280;4111;50.972;7.072;2023-12-07T01:31:50;101542.78;;;1.94;100.00
8140;BME280;4111;50.972;7.072;2023-12-07T01:34:17;101541.59;;;2.05;100.00
8140;BME280;4111;50.972;7.072;2023-12-07T01:36:44;101535.25;;;2.06;100.00
8140;BME280;4111;50.972;7.072;2023-12-07T01:39:11;101542.94;;;2.01;100.00
8140;BME280;4111;50.972;7.072;2023-12-07T01:41:39;101537.25;;;2.04;100.00
8140;BME280;4111;50.972;7.072;2023-12-07T01:44:06;101542.63;;;1.96;100.00
8140;BME280;4111;50.972;7.072;2023-12-07T01:46:33;101543.78;;;1.93;100.00
8140;BME280;4111;50.972;7.072;2023-12-07T01:49:00;101542.25;;;2.07;100.00
8140;BME280;4111;50.972;7.072;2023-12-07T01:51:27;101538.88;;;2.22;100.00
8140;BME280;4111;50.972;7.072;2023-12-07T01:53:54;101538.03;;;2.21;100.00
8140;BME280;4111;50.972;7.072;2023-12-07T01:56:23;101546.56;;;2.25;100.00
8140;BME280;4111;50.972;7.072;2023-12-07T01:58:50;101554.28;;;2.28;100.00
8140;BME280;4111;50.972;7.072;2023-12-07T02:01:17;101546.53;;;2.41;100.00
8140;BME280;4111;50.972;7.072;2023-12-07T02:03:44;101555.03;;;2.45;100.00
8140;BME280;4111;50.972;7.072;2023-12-07T02:06:11;101555.91;;;2.45;100.00
8140;BME280;4111;50.972;7.072;2023-12-07T02:08:37;101556.19;;;2.50;100.00
8140;BME280;4111;50.972;7.072;2023-12-07T02:11:08;101552.81;;;2.56;100.00
8140;BME280;4111;50.972;7.072;2023-12-07T02:13:37;101551.78;;;2.66;100.00
8140;BME280;4111;50.972;7.072;2023-12-07T02:16:08;101548.56;;;2.70;100.00
8140;BME280;4111;50.972;7.072;2023-12-07T02:18:40;101553.28;;;2.76;100.00
8140;BME280;4111;50.972;7.072;2023-12-07T02:21:20;101559.41;;;2.85;100.00
8140;BME280;4111;50.972;7.072;2023-12-07T02:23:51;101562.59;;;2.89;100.00
8140;BME280;4111;50.972;7.072;2023-12-07T02:26:34;101567.06;;;2.96;100.00
8140;BME280;4111;50.972;7.072;2023-12-07T02:29:01;101561.38;;;2.91;100.00
8140;BME280;4111;50.972;7.072;2023-12-07T02:31:28;101572.47;;;2.88;100.00
8140;BME280;4111;50.972;7.072;2023-12-07T02:33:54;101573.44;;;2.95;100.00
8140;BME280;4111;50.972;7.072;2023-12-07T02:36:24;101574.75;;;3.00;100.00
8140;BME280;4111;50.972;7.072;2023-12-07T02:38:56;101575.38;;;3.10;100.00
8140;BME280;4111;50.972;7.072;2023-12-07T02:41:23;101572.66;;;3.18;100.00
8140;BME280;4111;50.972;7.072;2023-12-07T02:43:51;101573.31;;;3.20;100.00
8140;BME280;4111;50.972;7.072;2023-12-07T02:46:18;101576.66;;;3.22;100.00
8140;BME280;4111;50.972;7.072;2023-12-07T02:48:44;101570.91;;;3.25;100.00
8140;BME280;4111;50.972;7.072;2023-12-07T02:51:11;101578.97;;;3.25;100.00
8140;BME280;4111;50.972;7.072;2023-12-07T02:53:37;101572.22;;;3.29;100.00
8140;BME280;4111;50.972;7.072;2023-12-07T02:56:04;101569.06;;;3.26;100.00
8140;BME280;4111;50.972;7.072;2023-12-07T02:58:31;101564.72;;;3.25;100.00
8140;BME280;4111;50.972;7.072;2023-12-07T03:00:57;101556.06;;;3.14;100.00
8140;BME280;4111;50.972;7.072;2023-12-07T03:03:25;101549.84;;;3.14;100.00
8140;BME280;4111;50.972;7.072;2023-12-07T03:05:52;101554.09;;;3.08;100.00
8140;BME280;4111;50.972;7.072;2023-12-07T03:08:18;101551.66;;;3.22;100.00
8140;BME280;4111;50.972;7.072;2023-12-07T03:10:45;101552.28;;;3.32;100.00
8140;BME280;4111;50.972;7.072;2023-12-07T03:13:11;101552.38;;;3.38;100.00
8140;BME280;4111;50.972;7.072;2023-12-07T03:15:38;101549.75;;;3.30;100.00
8140;BME280;4111;50.972;7.072;2023-12-07T03:18:04;101550.41;;;3.32;100.00
8140;BME280;4111;50.972;7.072;2023-12-07T03:20:31;101537.09;;;3.39;100.00
8140;BME280;4111;50.972;7.072;2023-12-07T03:22:58;101546.78;;;3.48;100.00
8140;BME280;4111;50.972;7.072;2023-12-07T03:25:25;101548.81;;;3.46;100.00
8140;BME280;4111;50.972;7.072;2023-12-07T03:27:51;101548.25;;;3.51;100.00
8140;BME280;4111;50.972;7.072;2023-12-07T03:30:18;101544.25;;;3.47;100.00
8140;BME280;4111;50.972;7.072;2023-12-07T03:32:44;101546.53;;;3.58;100.00
8140;BME280;4111;50.972;7.072;2023-12-07T03:35:11;101544.50;;;3.60;100.00
8140;BME280;4111;50.972;7.072;2023-12-07T03:37:37;101548.06;;;3.52;100.00
8140;BME280;4111;50.972;7.072;2023-12-07T03:40:04;101549.63;;;3.47;100.00
8140;BME280;4111;50.972;7.072;2023-12-07T03:42:31;101539.84;;;3.54;100.00
8140;BME280;4111;50.972;7.072;2023-12-07T03:45:18;101541.25;;;3.65;100.00
8140;BME280;4111;50.972;7.072;2023-12-07T03:47:44;101546.44;;;3.66;100.00
8140;BME280;4111;50.972;7.072;2023-12-07T03:50:11;101539.78;;;3.62;100.00
8140;BME280;4111;50.972;7.072;2023-12-07T03:52:37;101548.19;;;3.59;100.00
8140;BME280;4111;50.972;7.072;2023-12-07T03:55:04;101538.00;;;3.54;100.00
8140;BME280;4111;50.972;7.072;2023-12-07T03:57:31;101540.50;;;3.56;100.00
8140;BME280;4111;50.972;7.072;2023-12-07T03:59:58;101540.44;;;3.64;100.00
8140;BME280;4111;50.972;7.072;2023-12-07T04:02:24;101540.91;;;3.68;100.00
8140;BME280;4111;50.972;7.072;2023-12-07T04:04:51;101544.25;;;3.70;100.00
8140;BME280;4111;50.972;7.072;2023-12-07T04:07:17;101542.69;;;3.75;100.00
8140;BME280;4111;50.972;7.072;2023-12-07T04:09:44;101549.72;;;3.76;100.00
8140;BME280;4111;50.972;7.072;2023-12-07T04:12:11;101550.75;;;3.75;100.00
8140;BME280;4111;50.972;7.072;2023-12-07T04:14:37;101544.81;;;3.80;100.00
8140;BME280;4111;50.972;7.072;2023-12-07T04:17:04;101547.19;;;3.75;100.00
8140;BME280;4111;50.972;7.072;2023-12-07T04:19:30;101549.38;;;3.80;100.00
8140;BME280;4111;50.972;7.072;2023-12-07T04:21:57;101544.00;;;3.80;100.00
8140;BME280;4111;50.972;7.072;2023-12-07T04:24:23;101541.78;;;3.83;100.00
8140;BME280;4111;50.972;7.072;2023-12-07T04:26:49;101541.69;;;3.91;100.00
8140;BME280;4111;50.972;7.072;2023-12-07T04:29:16;101545.78;;;4.02;100.00
8140;BME280;4111;50.972;7.072;2023-12-07T04:31:42;101541.06;;;4.04;100.00
8140;BME280;4111;50.972;7.072;2023-12-07T04:34:09;101547.91;;;4.07;100.00
8140;BME280;4111;50.972;7.072;2023-12-07T04:36:36;101553.00;;;4.02;100.00
8140;BME280;4111;50.972;7.072;2023-12-07T04:39:02;101557.19;;;4.04;100.00
8140;BME280;4111;50.972;7.072;2023-12-07T04:41:29;101556.81;;;4.07;100.00
8140;BME280;4111;50.972;7.072;2023-12-07T04:43:56;101561.81;;;4.10;100.00
8140;BME280;4111;50.972;7.072;2023-12-07T04:46:22;101561.16;;;4.08;100.00
8140;BME280;4111;50.972;7.072;2023-12-07T04:48:49;101544.78;;;4.03;100.00
8140;BME280;4111;50.972;7.072;2023-12-07T04:51:15;101552.06;;;3.94;100.00
8140;BME280;4111;50.972;7.072;2023-12-07T04:53:41;101554.28;;;3.91;100.00
8140;BME280;4111;50.972;7.072;2023-12-07T04:56:08;101561.25;;;4.00;100.00
8140;BME280;4111;50.972;7.072;2023-12-07T04:58:35;101555.69;;;4.02;100.00
8140;BME280;4111;50.972;7.072;2023-12-07T05:01:02;101562.56;;;4.04;100.00
8140;BME280;4111;50.972;7.072;2023-12-07T05:03:29;101572.47;;;4.04;100.00
8140;BME280;4111;50.972;7.072;2023-12-07T05:05:56;101577.03;;;4.03;100.00
8140;BME280;4111;50.972;7.072;2023-12-07T05:08:22;101576.00;;;4.04;100.00
8140;BME280;4111;50.972;7.072;2023-12-07T05:10:48;101576.91;;;3.96;100.00
8140;BME280;4111;50.972;7.072;2023-12-07T05:13:15;101578.84;;;3.88;100.00
8140;BME280;4111;50.972;7.072;2023-12-07T05:15:42;101577.53;;;3.84;100.00
8140;BME280;4111;50.972;7.072;2023-12-07T05:18:08;101582.53;;;3.87;100.00
8140;BME280;4111;50.972;7.072;2023-12-07T05:20:35;101581.22;;;3.83;100.00
8140;BME280;4111;50.972;7.072;2023-12-07T05:23:05;101583.63;;;3.77;100.00
8140;BME280;4111;50.972;7.072;2023-12-07T05:25:32;101583.16;;;3.74;100.00
8140;BME280;4111;50.972;7.072;2023-12-07T05:27:58;101590.19;;;3.75;100.00
8140;BME280;4111;50.972;7.072;2023-12-07T05:30:25;101588.41;;;3.67;100.00
8140;BME280;4111;50.972;7.072;2023-12-07T05:32:51;101587.22;;;3.70;100.00
8140;BME280;4111;50.972;7.072;2023-12-07T05:35:18;101589.72;;;3.71;100.00
8140;BME280;4111;50.972;7.072;2023-12-07T05:37:44;101581.38;;;3.66;100.00
8140;BME280;4111;50.972;7.072;2023-12-07T05:40:11;101596.09;;;3.70;100.00
8140;BME280;4111;50.972;7.072;2023-12-07T05:42:38;101602.13;;;3.72;100.00
8140;BME280;4111;50.972;7.072;2023-12-07T05:45:05;101594.78;;;3.66;100.00
8140;BME280;4111;50.972;7.072;2023-12-07T05:47:32;101600.81;;;3.45;100.00
8140;BME280;4111;50.972;7.072;2023-12-07T05:49:59;101593.78;;;3.44;100.00
8140;BME280;4111;50.972;7.072;2023-12-07T05:52:26;101592.00;;;3.36;100.00
8140;BME280;4111;50.972;7.072;2023-12-07T05:54:53;101589.97;;;3.38;100.00
8140;BME280;4111;50.972;7.072;2023-12-07T05:57:19;101588.91;;;3.48;100.00
8140;BME280;4111;50.972;7.072;2023-12-07T05:59:46;101584.91;;;3.44;100.00
8140;BME280;4111;50.972;7.072;2023-12-07T06:02:12;101583.63;;;3.31;100.00
8140;BME280;4111;50.972;7.072;2023-12-07T06:04:39;101584.00;;;3.28;100.00
8140;BME280;4111;50.972;7.072;2023-12-07T06:07:06;101588.06;;;3.24;100.00
8140;BME280;4111;50.972;7.072;2023-12-07T06:09:33;101591.38;;;3.26;100.00
8140;BME280;4111;50.972;7.072;2023-12-07T06:11:59;101588.56;;;3.20;100.00
8140;BME280;4111;50.972;7.072;2023-12-07T06:14:26;101578.38;;;3.15;100.00
8140;BME280;4111;50.972;7.072;2023-12-07T06:16:52;101573.00;;;3.15;100.00
8140;BME280;4111;50.972;7.072;2023-12-07T06:19:18;101579.69;;;3.19;100.00
8140;BME280;4111;50.972;7.072;2023-12-07T06:21:45;101582.19;;;3.21;100.00
8140;BME280;4111;50.972;7.072;2023-12-07T06:24:12;101579.38;;;3.14;100.00
8140;BME280;4111;50.972;7.072;2023-12-07T06:26:40;101574.31;;;3.19;100.00
8140;BME280;4111;50.972;7.072;2023-12-07T06:29:07;101569.50;;;3.14;100.00
8140;BME280;4111;50.972;7.072;2023-12-07T06:31:33;101567.97;;;3.12;100.00
8140;BME280;4111;50.972;7.072;2023-12-07T06:34:00;101563.69;;;3.03;100.00
8140;BME280;4111;50.972;7.072;2023-12-07T06:36:27;101565.22;;;2.97;100.00
8140;BME280;4111;50.972;7.072;2023-12-07T06:38:53;101564.63;;;2.87;100.00
8140;BME280;4111;50.972;7.072;2023-12-07T06:41:21;101561.28;;;2.85;100.00
8140;BME280;4111;50.972;7.072;2023-12-07T06:43:47;101568.00;;;2.81;100.00
8140;BME280;4111;50.972;7.072;2023-12-07T06:46:14;101565.78;;;2.84;100.00
8140;BME280;4111;50.972;7.072;2023-12-07T06:48:42;101562.63;;;2.81;100.00
8140;BME280;4111;50.972;7.072;2023-12-07T06:51:08;101554.09;;;2.77;100.00
8140;BME280;4111;50.972;7.072;2023-12-07T06:53:35;101559.94;;;2.81;100.00
8140;BME280;4111;50.972;7.072;2023-12-07T06:56:01;101563.78;;;2.78;100.00
8140;BME280;4111;50.972;7.072;2023-12-07T06:58:28;101568.16;;;2.79;100.00
8140;BME280;4111;50.972;7.072;2023-12-07T07:00:55;101566.81;;;2.83;100.00
8140;BME280;4111;50.972;7.072;2023-12-07T07:03:21;101565.13;;;2.82;100.00
8140;BME280;4111;50.972;7.072;2023-12-07T07:05:48;101571.00;;;2.77;100.00
8140;BME280;4111;50.972;7.072;2023-12-07T07:08:14;101556.78;;;2.77;100.00
8140;BME280;4111;50.972;7.072;2023-12-07T07:10:41;101558.25;;;2.80;100.00
8140;BME280;4111;50.972;7.072;2023-12-07T07:13:07;101558.84;;;2.67;100.00
8140;BME280;4111;50.972;7.072;2023-12-07T07:15:34;101569.53;;;2.75;100.00
8140;BME280;4111;50.972;7.072;2023-12-07T07:18:01;101572.69;;;2.78;100.00
8140;BME280;4111;50.972;7.072;2023-12-07T07:20:27;101567.13;;;2.80;100.00
8140;BME280;4111;50.972;7.072;2023-12-07T07:22:54;101573.66;;;2.86;100.00
8140;BME280;4111;50.972;7.072;2023-12-07T07:25:20;101577.00;;;2.88;100.00
8140;BME280;4111;50.972;7.072;2023-12-07T07:27:47;101571.50;;;2.81;100.00
8140;BME280;4111;50.972;7.072;2023-12-07T07:30:13;101569.56;;;2.67;100.00
8140;BME280;4111;50.972;7.072;2023-12-07T07:32:40;101571.59;;;2.65;100.00
8140;BME280;4111;50.972;7.072;2023-12-07T07:35:07;101575.94;;;2.66;100.00
8140;BME280;4111;50.972;7.072;2023-12-07T07:37:34;101574.28;;;2.56;100.00
8140;BME280;4111;50.972;7.072;2023-12-07T07:40:00;101570.63;;;2.49;100.00
8140;BME280;4111;50.972;7.072;2023-12-07T07:42:33;101579.00;;;2.46;100.00
8140;BME280;4111;50.972;7.072;2023-12-07T07:44:59;101574.81;;;2.52;100.00
8140;BME280;4111;50.972;7.072;2023-12-07T07:47:26;101579.00;;;2.46;100.00
8140;BME280;4111;50.972;7.072;2023-12-07T07:49:53;101574.66;;;2.45;100.00
8140;BME280;4111;50.972;7.072;2023-12-07T07:52:19;101564.94;;;2.44;100.00
8140;BME280;4111;50.972;7.072;2023-12-07T07:54:46;101566.22;;;2.56;100.00
8140;BME280;4111;50.972;7.072;2023-12-07T07:57:12;101570.75;;;2.56;100.00
8140;BME280;4111;50.972;7.072;2023-12-07T07:59:39;101570.44;;;2.59;100.00
8140;BME280;4111;50.972;7.072;2023-12-07T08:02:05;101577.16;;;2.55;100.00
8140;BME280;4111;50.972;7.072;2023-12-07T08:04:32;101570.59;;;2.57;100.00
8140;BME280;4111;50.972;7.072;2023-12-07T08:06:58;101565.66;;;2.77;100.00
8140;BME280;4111;50.972;7.072;2023-12-07T08:09:25;101567.25;;;2.95;100.00
8140;BME280;4111;50.972;7.072;2023-12-07T08:11:52;101571.19;;;3.07;100.00
8140;BME280;4111;50.972;7.072;2023-12-07T08:14:18;101577.16;;;2.94;100.00
8140;BME280;4111;50.972;7.072;2023-12-07T08:16:45;101571.28;;;2.91;100.00
8140;BME280;4111;50.972;7.072;2023-12-07T08:19:13;101578.53;;;2.82;100.00
8140;BME280;4111;50.972;7.072;2023-12-07T08:21:40;101579.69;;;2.88;100.00
8140;BME280;4111;50.972;7.072;2023-12-07T08:24:06;101584.22;;;2.87;100.00
8140;BME280;4111;50.972;7.072;2023-12-07T08:26:33;101576.38;;;2.77;100.00
8140;BME280;4111;50.972;7.072;2023-12-07T08:28:59;101580.22;;;2.83;100.00
8140;BME280;4111;50.972;7.072;2023-12-07T08:31:25;101577.16;;;2.86;100.00
8140;BME280;4111;50.972;7.072;2023-12-07T08:33:52;101591.59;;;2.85;100.00
8140;BME280;4111;50.972;7.072;2023-12-07T08:36:19;101594.00;;;2.72;100.00
8140;BME280;4111;50.972;7.072;2023-12-07T08:38:45;101592.97;;;2.81;100.00
8140;BME280;4111;50.972;7.072;2023-12-07T08:41:12;101593.41;;;2.93;100.00
8140;BME280;4111;50.972;7.072;2023-12-07T08:43:40;101585.41;;;2.85;100.00
8140;BME280;4111;50.972;7.072;2023-12-07T08:46:06;101579.50;;;2.89;100.00
8140;BME280;4111;50.972;7.072;2023-12-07T08:48:33;101584.66;;;2.99;100.00
8140;BME280;4111;50.972;7.072;2023-12-07T08:51:03;101587.88;;;2.94;100.00
8140;BME280;4111;50.972;7.072;2023-12-07T08:53:29;101592.91;;;2.89;100.00
8140;BME280;4111;50.972;7.072;2023-12-07T08:55:56;101589.69;;;3.02;100.00
8140;BME280;4111;50.972;7.072;2023-12-07T08:58:23;101596.72;;;3.03;100.00
8140;BME280;4111;50.972;7.072;2023-12-07T09:00:50;101604.28;;;3.00;100.00
8140;BME280;4111;50.972;7.072;2023-12-07T09:03:17;101606.25;;;3.06;100.00
8140;BME280;4111;50.972;7.072;2023-12-07T09:05:43;101610.22;;;3.18;100.00
8140;BME280;4111;50.972;7.072;2023-12-07T09:08:10;101609.28;;;3.34;100.00
8140;BME280;4111;50.972;7.072;2023-12-07T09:10:36;101611.66;;;3.29;100.00
8140;BME280;4111;50.972;7.072;2023-12-07T09:13:03;101607.78;;;3.31;100.00
8140;BME280;4111;50.972;7.072;2023-12-07T09:15:29;101607.50;;;3.26;100.00
8140;BME280;4111;50.972;7.072;2023-12-07T09:17:57;101603.06;;;3.33;100.00
8140;BME280;4111;50.972;7.072;2023-12-07T09:20:24;101601.75;;;3.29;100.00
8140;BME280;4111;50.972;7.072;2023-12-07T09:22:50;101600.59;;;3.32;100.00
8140;BME280;4111;50.972;7.072;2023-12-07T09:25:17;101598.84;;;3.16;100.00
8140;BME280;4111;50.972;7.072;2023-12-07T09:27:44;101597.50;;;3.12;100.00
8140;BME280;4111;50.972;7.072;2023-12-07T09:30:11;101601.19;;;3.11;100.00
8140;BME280;4111;50.972;7.072;2023-12-07T09:32:42;101597.81;;;3.17;100.00
8140;BME280;4111;50.972;7.072;2023-12-07T09:35:11;101591.94;;;3.13;100.00
8140;BME280;4111;50.972;7.072;2023-12-07T09:37:48;101588.75;;;3.18;100.00
8140;BME280;4111;50.972;7.072;2023-12-07T09:40:16;101593.75;;;3.21;100.00
8140;BME280;4111;50.972;7.072;2023-12-07T09:42:47;101602.19;;;3.18;100.00
8140;BME280;4111;50.972;7.072;2023-12-07T09:45:15;101599.13;;;3.21;100.00
8140;BME280;4111;50.972;7.072;2023-12-07T09:47:43;101601.75;;;3.29;100.00
8140;BME280;4111;50.972;7.072;2023-12-07T09:50:15;101611.44;;;3.38;100.00
8140;BME280;4111;50.972;7.072;2023-12-07T09:52:42;101602.00;;;3.43;100.00
8140;BME280;4111;50.972;7.072;2023-12-07T09:55:19;101594.25;;;3.25;100.00
8140;BME280;4111;50.972;7.072;2023-12-07T09:57:46;101590.78;;;3.16;100.00
8140;BME280;4111;50.972;7.072;2023-12-07T10:00:13;101588.75;;;3.18;100.00
8140;BME280;4111;50.972;7.072;2023-12-07T10:02:42;101580.06;;;3.16;100.00
8140;BME280;4111;50.972;7.072;2023-12-07T10:05:11;101578.13;;;3.25;100.00
8140;BME280;4111;50.972;7.072;2023-12-07T10:07:40;101574.56;;;3.32;100.00
8140;BME280;4111;50.972;7.072;2023-12-07T10:10:07;101565.69;;;3.32;100.00
8140;BME280;4111;50.972;7.072;2023-12-07T10:12:44;101572.53;;;3.34;100.00
8140;BME280;4111;50.972;7.072;2023-12-07T10:15:16;101574.25;;;3.27;100.00
8140;BME280;4111;50.972;7.072;2023-12-07T10:17:55;101581.38;;;3.20;100.00
8140;BME280;4111;50.972;7.072;2023-12-07T10:20:25;101577.78;;;3.28;100.00
8140;BME280;4111;50.972;7.072;2023-12-07T10:23:03;101574.91;;;3.29;100.00
8140;BME280;4111;50.972;7.072;2023-12-07T10:25:36;101569.91;;;3.26;100.00
8140;BME280;4111;50.972;7.072;2023-12-07T10:28:03;101569.69;;;3.36;100.00
8140;BME280;4111;50.972;7.072;2023-12-07T10:30:34;101561.81;;;3.34;100.00
8140;BME280;4111;50.972;7.072;2023-12-07T10:33:04;101568.59;;;3.45;100.00
8140;BME280;4111;50.972;7.072;2023-12-07T10:35:38;101552.97;;;3.49;100.00
8140;BME280;4111;50.972;7.072;2023-12-07T10:38:06;101548.97;;;3.45;100.00
8140;BME280;4111;50.972;7.072;2023-12-07T10:40:33;101545.22;;;3.54;100.00
8140;BME280;4111;50.972;7.072;2023-12-07T10:43:04;101535.06;;;3.64;100.00
8140;BME280;4111;50.972;7.072;2023-12-07T10:45:31;101537.75;;;3.79;100.00
8140;BME280;4111;50.972;7.072;2023-12-07T10:48:02;101537.63;;;3.95;100.00
8140;BME280;4111;50.972;7.072;2023-12-07T10:50:36;101531.03;;;3.98;100.00
8140;BME280;4111;50.972;7.072;2023-12-07T10:53:56;101526.88;;;3.95;100.00
8140;BME280;4111;50.972;7.072;2023-12-07T10:56:00;101511.59;;;3.81;100.00
8140;BME280;4111;50.972;7.072;2023-12-07T10:58:27;101501.66;;;3.96;100.00
8140;BME280;4111;50.972;7.072;2023-12-07T11:00:55;101499.28;;;4.02;100.00
8140;BME280;4111;50.972;7.072;2023-12-07T11:03:22;101487.22;;;3.97;100.00
8140;BME280;4111;50.972;7.072;2023-12-07T11:05:49;101479.53;;;4.09;100.00
8140;BME280;4111;50.972;7.072;2023-12-07T11:11:00;101464.81;;;4.05;99.75
8140;BME280;4111;50.972;7.072;2023-12-07T11:13:30;101464.50;;;4.00;99.44
8140;BME280;4111;50.972;7.072;2023-12-07T11:15:57;101464.81;;;4.05;99.11
8140;BME280;4111;50.972;7.072;2023-12-07T11:18:28;101455.41;;;4.31;99.73
8140;BME280;4111;50.972;7.072;2023-12-07T11:20:55;101450.41;;;4.43;99.45
8140;BME280;4111;50.972;7.072;2023-12-07T11:23:22;101447.00;;;4.55;99.37
8140;BME280;4111;50.972;7.072;2023-12-07T11:25:52;101445.50;;;4.68;98.84
8140;BME280;4111;50.972;7.072;2023-12-07T11:28:34;101442.59;;;4.84;98.35
8140;BME280;4111;50.972;7.072;2023-12-07T11:31:01;101436.63;;;4.89;98.04
8140;BME280;4111;50.972;7.072;2023-12-07T11:33:30;101438.81;;;5.00;97.00
8140;BME280;4111;50.972;7.072;2023-12-07T11:38:30;101419.81;;;5.08;95.84
8140;BME280;4111;50.972;7.072;2023-12-07T11:40:57;101418.59;;;4.89;94.77
8140;BME280;4111;50.972;7.072;2023-12-07T11:43:36;101404.50;;;4.87;94.72
8140;BME280;4111;50.972;7.072;2023-12-07T11:46:04;101409.38;;;4.77;94.37
8140;BME280;4111;50.972;7.072;2023-12-07T11:48:31;101406.25;;;4.73;94.06
8140;BME280;4111;50.972;7.072;2023-12-07T11:50:58;101398.25;;;4.80;94.44
8140;BME280;4111;50.972;7.072;2023-12-07T11:53:33;101393.88;;;4.79;94.08
8140;BME280;4111;50.972;7.072;2023-12-07T11:56:01;101383.63;;;4.89;94.55
8140;BME280;4111;50.972;7.072;2023-12-07T11:58:29;101383.44;;;4.91;94.33
8140;BME280;4111;50.972;7.072;2023-12-07T12:00:59;101377.91;;;4.99;94.39
8140;BME280;4111;50.972;7.072;2023-12-07T12:03:27;101380.03;;;5.04;93.86
8140;BME280;4111;50.972;7.072;2023-12-07T12:05:54;101378.03;;;5.12;93.92
8140;BME280;4111;50.972;7.072;2023-12-07T12:08:21;101375.94;;;5.08;93.75
8140;BME280;4111;50.972;7.072;2023-12-07T12:10:50;101375.53;;;5.11;93.23
8140;BME280;4111;50.972;7.072;2023-12-07T12:13:19;101378.94;;;5.20;93.43
8140;BME280;4111;50.972;7.072;2023-12-07T12:15:45;101380.19;;;5.24;92.96
8140;BME280;4111;50.972;7.072;2023-12-07T12:18:16;101366.94;;;5.22;92.82
8140;BME280;4111;50.972;7.072;2023-12-07T12:20:45;101365.03;;;5.16;92.37
8140;BME280;4111;50.972;7.072;2023-12-07T12:23:11;101365.81;;;5.10;91.83
8140;BME280;4111;50.972;7.072;2023-12-07T12:25:38;101373.09;;;5.16;91.79
8140;BME280;4111;50.972;7.072;2023-12-07T12:28:07;101366.94;;;5.22;92.04
8140;BME280;4111;50.972;7.072;2023-12-07T12:30:34;101370.50;;;5.29;92.43
8140;BME280;4111;50.972;7.072;2023-12-07T12:33:00;101369.28;;;5.32;92.10
8140;BME280;4111;50.972;7.072;2023-12-07T12:35:28;101369.63;;;5.22;91.91
8140;BME280;4111;50.972;7.072;2023-12-07T12:37:55;101365.16;;;5.08;91.21
8140;BME280;4111;50.972;7.072;2023-12-07T12:40:22;101369.78;;;5.14;91.33
8140;BME280;4111;50.972;7.072;2023-12-07T12:42:51;101348.09;;;5.22;91.17
8140;BME280;4111;50.972;7.072;2023-12-07T12:45:22;101336.34;;;5.30;91.16
8140;BME280;4111;50.972;7.072;2023-12-07T12:47:49;101333.81;;;5.28;91.08
8140;BME280;4111;50.972;7.072;2023-12-07T12:50:35;101335.72;;;5.34;90.77
8140;BME280;4111;50.972;7.072;2023-12-07T12:53:07;101331.44;;;5.47;90.59
8140;BME280;4111;50.972;7.072;2023-12-07T12:55:38;101323.63;;;5.52;90.23
8140;BME280;4111;50.972;7.072;2023-12-07T12:58:07;101322.16;;;5.49;90.39
8140;BME280;4111;50.972;7.072;2023-12-07T13:00:35;101310.41;;;5.57;90.23
8140;BME280;4111;50.972;7.072;2023-12-07T13:03:05;101310.59;;;5.62;89.76
8140;BME280;4111;50.972;7.072;2023-12-07T13:05:32;101308.78;;;5.69;89.16
8140;BME280;4111;50.972;7.072;2023-12-07T13:08:01;101305.91;;;5.78;89.34
8140;BME280;4111;50.972;7.072;2023-12-07T13:10:40;101305.13;;;5.84;89.22
8140;BME280;4111;50.972;7.072;2023-12-07T13:13:07;101308.47;;;5.92;89.26
8140;BME280;4111;50.972;7.072;2023-12-07T13:15:33;101307.41;;;5.87;88.70
8140;BME280;4111;50.972;7.072;2023-12-07T13:18:00;101310.06;;;5.73;88.20
8140;BME280;4111;50.972;7.072;2023-12-07T13:20:31;101293.44;;;5.63;88.05